createdAt,value
2023-03-17T00:01:23.642Z,5.10
2023-03-17T00:03:26.821Z,5.10
2023-03-17T00:05:33.247Z,5.10
2023-03-17T00:07:34.844Z,5.10
2023-03-17T00:09:36.626Z,5.00
2023-03-17T00:11:38.564Z,5.00
2023-03-17T00:13:41.671Z,5.00
2023-03-17T00:15:44.844Z,5.00
2023-03-17T00:17:47.561Z,5.00
2023-03-17T00:19:49.164Z,4.90
2023-03-17T00:21:50.773Z,4.90
2023-03-17T00:23:52.472Z,4.90
2023-03-17T00:25:54.274Z,5.00
2023-03-17T00:27:58.122Z,5.00
2023-03-17T00:29:59.836Z,5.00
2023-03-17T00:32:01.504Z,5.00
2023-03-17T00:34:03.198Z,5.00
2023-03-17T00:36:06.599Z,5.10
2023-03-17T00:38:14.737Z,5.00
2023-03-17T00:40:21.570Z,5.00
2023-03-17T00:42:23.272Z,5.00
2023-03-17T00:44:25.498Z,5.00
2023-03-17T00:46:35.867Z,5.10
2023-03-17T00:48:39.087Z,5.10
2023-03-17T00:50:40.940Z,5.10
2023-03-17T00:52:43.312Z,5.10
2023-03-17T00:54:45.343Z,5.10
2023-03-17T00:56:48.033Z,5.10
2023-03-17T00:58:49.770Z,5.10
2023-03-17T01:00:52.202Z,5.10
2023-03-17T01:02:54.668Z,5.10
2023-03-17T01:05:05.775Z,5.10
2023-03-17T01:07:11.088Z,5.10
2023-03-17T01:09:17.013Z,5.20
2023-03-17T01:11:20.204Z,5.20
2023-03-17T01:13:22.184Z,5.20
2023-03-17T01:15:24.638Z,5.20
2023-03-17T01:17:26.633Z,5.30
2023-03-17T01:19:28.283Z,5.20
2023-03-17T01:21:29.969Z,5.20
2023-03-17T01:23:31.836Z,5.20
2023-03-17T01:25:33.736Z,5.20
2023-03-17T01:27:36.392Z,5.20
2023-03-17T01:29:38.705Z,5.20
2023-03-17T01:31:41.164Z,5.30
2023-03-17T01:33:42.919Z,5.30
2023-03-17T01:35:45.887Z,5.30
2023-03-17T01:37:48.875Z,5.30
2023-03-17T01:39:51.400Z,5.30
2023-03-17T01:41:56.751Z,5.20
2023-03-17T01:43:58.357Z,5.20
2023-03-17T01:46:20.692Z,5.20
2023-03-17T01:48:22.786Z,5.30
2023-03-17T01:50:24.455Z,5.30
2023-03-17T01:52:27.600Z,5.30
2023-03-17T01:54:44.256Z,5.30
2023-03-17T01:56:47.230Z,5.30
2023-03-17T01:58:51.891Z,5.30
2023-03-17T02:00:53.659Z,5.30
2023-03-17T02:02:56.340Z,5.30
2023-03-17T02:04:58.398Z,5.20
2023-03-17T02:07:00.505Z,5.20
2023-03-17T02:09:02.248Z,5.20
2023-03-17T02:11:05.328Z,5.20
2023-03-17T02:13:07.730Z,5.30
2023-03-17T02:15:09.993Z,5.30
2023-03-17T02:17:11.633Z,5.30
2023-03-17T02:19:13.579Z,5.20
2023-03-17T02:21:34.043Z,5.20
2023-03-17T02:23:36.563Z,5.20
2023-03-17T02:25:39.028Z,5.20
2023-03-17T02:27:45.242Z,5.10
2023-03-17T02:29:47.238Z,5.10
2023-03-17T02:31:49.086Z,5.10
2023-03-17T02:33:52.106Z,5.00
2023-03-17T02:35:53.739Z,5.00
2023-03-17T02:37:55.372Z,5.00
2023-03-17T02:39:57.016Z,5.00
2023-03-17T02:41:58.606Z,5.00
2023-03-17T02:44:00.650Z,4.90
2023-03-17T02:46:02.429Z,4.90
2023-03-17T02:48:05.212Z,4.90
2023-03-17T02:50:07.454Z,4.80
2023-03-17T02:52:09.288Z,4.80
2023-03-17T02:54:11.147Z,4.80
2023-03-17T02:56:12.833Z,4.70
2023-03-17T02:58:14.429Z,4.80
2023-03-17T03:00:16.341Z,4.80
2023-03-17T03:02:18.107Z,4.80
2023-03-17T03:04:20.233Z,4.90
2023-03-17T03:06:23.744Z,4.80
2023-03-17T03:08:26.175Z,4.90
2023-03-17T03:10:28.120Z,4.80
2023-03-17T03:12:30.373Z,4.80
2023-03-17T03:14:32.497Z,4.90
2023-03-17T03:16:34.188Z,4.80
2023-03-17T03:18:35.778Z,4.90
2023-03-17T03:20:37.409Z,5.00
2023-03-17T03:22:39.305Z,5.00
2023-03-17T03:24:41.659Z,5.00
2023-03-17T03:26:43.851Z,4.90
2023-03-17T03:28:45.770Z,4.90
2023-03-17T03:30:47.499Z,4.90
2023-03-17T03:32:49.386Z,4.90
2023-03-17T03:34:51.068Z,4.90
2023-03-17T03:36:52.665Z,4.80
2023-03-17T03:38:54.508Z,4.90
2023-03-17T03:40:56.120Z,4.80
2023-03-17T03:42:57.865Z,4.80
2023-03-17T03:44:59.495Z,4.80
2023-03-17T03:47:01.694Z,4.70
2023-03-17T03:49:03.415Z,4.60
2023-03-17T03:51:05.277Z,4.60
2023-03-17T03:53:07.280Z,4.60
2023-03-17T03:55:09.308Z,4.60
2023-03-17T03:57:11.066Z,4.50
2023-03-17T03:59:12.725Z,4.50
2023-03-17T04:01:14.493Z,4.40
2023-03-17T04:03:16.513Z,4.30
2023-03-17T04:05:18.590Z,4.30
2023-03-17T04:07:21.309Z,4.30
2023-03-17T04:09:22.977Z,4.30
2023-03-17T04:11:24.634Z,4.20
2023-03-17T04:13:26.222Z,4.20
2023-03-17T04:15:27.904Z,4.10
2023-03-17T04:17:29.499Z,4.10
2023-03-17T04:19:31.497Z,4.00
2023-03-17T04:21:33.224Z,4.00
2023-03-17T04:23:34.826Z,4.00
2023-03-17T04:25:36.786Z,4.00
2023-03-17T04:27:38.431Z,4.00
2023-03-17T04:29:40.231Z,3.90
2023-03-17T04:31:42.462Z,4.00
2023-03-17T04:33:44.547Z,4.00
2023-03-17T04:35:46.335Z,3.90
2023-03-17T04:37:48.561Z,3.90
2023-03-17T04:39:50.205Z,3.90
2023-03-17T04:41:51.912Z,3.80
2023-03-17T04:43:53.584Z,3.80
2023-03-17T04:45:55.724Z,3.80
2023-03-17T04:47:57.397Z,3.80
2023-03-17T04:49:59.001Z,3.80
2023-03-17T04:52:00.778Z,3.80
2023-03-17T04:54:02.706Z,3.70
2023-03-17T04:56:04.429Z,3.70
2023-03-17T04:58:06.094Z,3.70
2023-03-17T05:00:08.145Z,3.70
2023-03-17T05:02:10.088Z,3.80
2023-03-17T05:04:16.663Z,3.70
2023-03-17T05:06:23.751Z,3.70
2023-03-17T05:08:26.117Z,3.80
2023-03-17T05:10:27.817Z,3.70
2023-03-17T05:12:29.481Z,3.70
2023-03-17T05:14:31.107Z,3.60
2023-03-17T05:16:32.721Z,3.60
2023-03-17T05:18:34.836Z,3.60
2023-03-17T05:20:36.787Z,3.60
2023-03-17T05:22:38.560Z,3.50
2023-03-17T05:24:40.392Z,3.40
2023-03-17T05:26:42.189Z,3.40
2023-03-17T05:28:43.766Z,3.40
2023-03-17T05:30:45.915Z,3.40
2023-03-17T05:32:48.071Z,3.40
2023-03-17T05:34:49.990Z,3.40
2023-03-17T05:36:51.602Z,3.30
2023-03-17T05:38:53.271Z,3.30
2023-03-17T05:40:55.110Z,3.30
2023-03-17T05:42:56.809Z,3.20
2023-03-17T05:44:58.630Z,3.20
2023-03-17T05:47:00.922Z,3.20
2023-03-17T05:49:03.164Z,3.20
2023-03-17T05:51:04.948Z,3.20
2023-03-17T05:53:06.615Z,3.20
2023-03-17T05:55:08.461Z,3.20
2023-03-17T05:57:10.322Z,3.20
2023-03-17T05:59:14.895Z,3.30
2023-03-17T06:01:16.667Z,3.30
2023-03-17T06:03:18.393Z,3.30
2023-03-17T06:05:20.069Z,3.40
2023-03-17T06:07:21.865Z,3.40
2023-03-17T06:09:23.456Z,3.50
2023-03-17T06:11:25.234Z,3.50
2023-03-17T06:13:27.176Z,3.50
2023-03-17T06:15:29.124Z,3.50
2023-03-17T06:17:31.131Z,3.60
2023-03-17T06:19:32.743Z,3.60
2023-03-17T06:21:34.436Z,3.60
2023-03-17T06:23:36.587Z,3.60
2023-03-17T06:25:38.190Z,3.50
2023-03-17T06:27:40.937Z,3.50
2023-03-17T06:29:42.731Z,3.60
2023-03-17T06:31:50.228Z,3.70
2023-03-17T06:33:59.674Z,3.60
2023-03-17T06:36:01.830Z,3.70
2023-03-17T06:38:03.789Z,3.70
2023-03-17T06:40:12.909Z,3.70
2023-03-17T06:42:20.440Z,3.80
2023-03-17T06:44:22.034Z,3.80
2023-03-17T06:46:23.636Z,3.80
2023-03-17T06:48:39.278Z,3.90
2023-03-17T06:50:47.964Z,3.90
2023-03-17T06:52:49.655Z,4.00
2023-03-17T06:54:51.881Z,4.00
2023-03-17T06:56:53.724Z,4.10
2023-03-17T06:58:55.253Z,4.20
2023-03-17T07:00:57.054Z,4.30
2023-03-17T07:02:58.683Z,4.50
2023-03-17T07:05:00.722Z,4.60
2023-03-17T07:07:03.096Z,4.60
2023-03-17T07:09:11.423Z,4.80
2023-03-17T07:11:13.033Z,4.90
2023-03-17T07:13:20.949Z,5.10
2023-03-17T07:15:22.521Z,5.20
2023-03-17T07:17:24.170Z,5.40
2023-03-17T07:19:27.154Z,5.50
2023-03-17T07:21:28.749Z,5.60
2023-03-17T07:23:31.042Z,5.70
2023-03-17T07:25:33.148Z,5.80
2023-03-17T07:27:35.581Z,5.80
2023-03-17T07:29:37.453Z,5.90
2023-03-17T07:31:39.347Z,5.90
2023-03-17T07:33:41.297Z,6.00
2023-03-17T07:35:43.738Z,6.10
2023-03-17T07:37:47.303Z,6.20
2023-03-17T07:39:54.869Z,6.30
2023-03-17T07:42:06.935Z,6.40
2023-03-17T07:44:22.815Z,6.50
2023-03-17T07:46:24.444Z,6.50
2023-03-17T07:48:27.343Z,6.60
2023-03-17T07:50:29.360Z,6.70
2023-03-17T07:52:39.451Z,6.70
2023-03-17T07:54:43.240Z,6.70
2023-03-17T07:56:45.229Z,6.80
2023-03-17T07:58:47.295Z,6.80
2023-03-17T08:00:48.904Z,6.80
2023-03-17T08:03:06.913Z,6.90
2023-03-17T08:05:11.316Z,6.90
2023-03-17T08:07:13.096Z,7.00
2023-03-17T08:09:15.629Z,7.10
2023-03-17T08:11:19.025Z,7.20
2023-03-17T08:13:20.745Z,7.30
2023-03-17T08:15:22.869Z,7.30
2023-03-17T08:17:27.853Z,7.40
2023-03-17T08:19:29.673Z,7.50
2023-03-17T08:21:32.097Z,7.60
2023-03-17T08:23:33.946Z,7.60
2023-03-17T08:25:35.875Z,7.70
2023-03-17T08:27:38.747Z,7.80
2023-03-17T08:29:40.364Z,7.90
2023-03-17T08:31:43.613Z,8.10
2023-03-17T08:33:50.604Z,8.20
2023-03-17T08:35:54.054Z,8.30
2023-03-17T08:37:56.362Z,8.30
2023-03-17T08:39:58.253Z,8.30
2023-03-17T08:41:59.962Z,8.40
2023-03-17T08:44:01.987Z,8.50
2023-03-17T08:46:08.182Z,8.40
2023-03-17T08:48:10.128Z,8.60
2023-03-17T08:50:31.910Z,8.70
2023-03-17T08:52:34.968Z,8.70
2023-03-17T08:54:40.642Z,8.70
2023-03-17T08:56:46.746Z,8.90
2023-03-17T08:58:49.090Z,9.10
2023-03-17T09:00:53.925Z,9.10
2023-03-17T09:02:56.861Z,9.10
2023-03-17T09:04:58.714Z,9.10
2023-03-17T09:07:04.472Z,9.20
2023-03-17T09:09:06.975Z,9.20
2023-03-17T09:11:10.375Z,9.30
2023-03-17T09:13:12.103Z,9.50
2023-03-17T09:15:13.747Z,9.70
2023-03-17T09:17:15.405Z,9.80
2023-03-17T09:19:17.968Z,9.90
2023-03-17T09:21:20.063Z,10.10
2023-03-17T09:23:23.259Z,10.40
2023-03-17T09:25:25.057Z,10.50
2023-03-17T09:27:26.688Z,10.70
2023-03-17T09:29:28.389Z,10.90
2023-03-17T09:31:32.940Z,10.90
2023-03-17T09:33:34.615Z,11.00
2023-03-17T09:35:37.722Z,11.20
2023-03-17T09:37:39.417Z,11.40
2023-03-17T09:39:41.664Z,11.50
2023-03-17T09:41:57.063Z,11.60
2023-03-17T09:44:05.040Z,11.90
2023-03-17T09:46:29.950Z,12.10
2023-03-17T09:48:49.872Z,12.30
2023-03-17T09:50:54.466Z,12.50
2023-03-17T09:52:57.267Z,12.50
2023-03-17T09:54:58.935Z,12.60
2023-03-17T09:57:06.121Z,12.60
2023-03-17T09:59:19.133Z,12.90
2023-03-17T10:01:22.161Z,13.10
2023-03-17T10:03:29.653Z,12.90
2023-03-17T10:05:38.075Z,13.00
2023-03-17T10:07:59.030Z,13.00
2023-03-17T10:10:03.988Z,13.00
2023-03-17T10:12:09.305Z,13.30
2023-03-17T10:14:24.223Z,13.70
2023-03-17T10:16:45.238Z,14.10
2023-03-17T10:18:51.724Z,14.20
2023-03-17T10:20:57.982Z,14.50
2023-03-17T10:23:03.580Z,14.50
2023-03-17T10:25:07.709Z,14.80
2023-03-17T10:27:12.415Z,15.00
2023-03-17T10:29:16.698Z,15.20
2023-03-17T10:31:20.231Z,15.50
2023-03-17T10:33:22.493Z,15.80
2023-03-17T10:35:24.774Z,15.90
2023-03-17T10:37:29.734Z,16.00
2023-03-17T10:39:41.496Z,16.20
2023-03-17T10:41:52.508Z,16.30
2023-03-17T10:43:54.636Z,16.40
2023-03-17T10:46:18.412Z,16.30
2023-03-17T10:48:22.818Z,16.30
2023-03-17T10:50:28.689Z,16.40
2023-03-17T10:52:33.200Z,16.50
2023-03-17T10:54:36.311Z,16.60
2023-03-17T10:56:42.270Z,16.50
2023-03-17T10:58:45.211Z,16.20
2023-03-17T11:01:01.450Z,16.20
2023-03-17T11:03:12.020Z,16.40
2023-03-17T11:05:19.924Z,16.40
2023-03-17T11:07:30.431Z,16.60
2023-03-17T11:09:36.413Z,16.70
2023-03-17T11:11:46.044Z,16.80
2023-03-17T11:13:50.658Z,16.90
2023-03-17T11:15:56.890Z,17.00
2023-03-17T11:18:05.331Z,17.00
2023-03-17T11:20:13.227Z,17.30
2023-03-17T11:22:19.659Z,17.60
2023-03-17T11:24:28.172Z,17.70
2023-03-17T11:26:42.088Z,17.90
2023-03-17T11:28:47.916Z,17.90
2023-03-17T11:30:56.666Z,17.90
2023-03-17T11:59:56.655Z,20.50
2023-03-17T12:01:59.376Z,20.80
2023-03-17T12:04:14.780Z,21.10
2023-03-17T12:06:24.671Z,21.30
2023-03-17T12:08:42.227Z,21.60
2023-03-17T12:10:55.534Z,23.30
2023-03-17T12:13:00.309Z,23.60
2023-03-17T12:15:05.254Z,22.70
2023-03-17T12:17:27.002Z,21.70
2023-03-17T12:19:33.791Z,21.60
2023-03-17T12:21:56.861Z,21.40
2023-03-17T12:24:02.325Z,21.50
2023-03-17T12:26:05.239Z,21.80
2023-03-17T12:28:11.831Z,21.80
2023-03-17T12:30:25.453Z,22.00
2023-03-17T12:32:36.051Z,22.20
2023-03-17T12:34:41.830Z,22.00
2023-03-17T12:36:43.914Z,22.30
2023-03-17T12:39:02.034Z,22.80
2023-03-17T12:41:06.983Z,22.90
2023-03-17T12:43:15.233Z,22.40
2023-03-17T12:45:30.444Z,22.00
2023-03-17T12:47:41.035Z,21.60
2023-03-17T12:49:51.418Z,20.90
2023-03-17T12:51:56.150Z,20.70
2023-03-17T12:54:00.254Z,20.70
2023-03-17T12:56:17.386Z,20.80
2023-03-17T12:58:19.996Z,21.50
2023-03-17T13:00:25.346Z,22.00
2023-03-17T13:02:27.040Z,22.00
2023-03-17T13:04:32.369Z,21.80
2023-03-17T13:06:39.347Z,22.00
2023-03-17T13:08:41.222Z,21.60
2023-03-17T13:10:44.380Z,21.10
2023-03-17T13:12:48.580Z,21.10
2023-03-17T13:14:51.886Z,21.40
2023-03-17T13:17:04.580Z,21.60
2023-03-17T13:19:17.289Z,21.80
2023-03-17T13:21:22.624Z,21.60
2023-03-17T13:23:42.835Z,21.70
2023-03-17T13:25:54.590Z,21.20
2023-03-17T13:28:11.920Z,21.10
2023-03-17T13:30:22.765Z,21.60
2023-03-17T13:32:24.767Z,21.60
2023-03-17T13:34:28.204Z,21.40
2023-03-17T13:36:37.993Z,21.10
2023-03-17T13:39:15.116Z,21.10
2023-03-17T13:41:33.423Z,20.90
2023-03-17T13:43:38.152Z,20.80
2023-03-17T13:45:43.898Z,21.30
2023-03-17T14:23:52.848Z,23.80
2023-03-17T14:25:58.590Z,24.20
2023-03-17T14:28:00.717Z,23.70
2023-03-17T14:30:06.763Z,23.50
2023-03-17T14:32:13.230Z,23.50
2023-03-17T14:34:16.089Z,23.30
2023-03-17T14:36:19.395Z,22.80
2023-03-17T14:38:25.339Z,22.80
2023-03-17T14:40:28.308Z,22.70
2023-03-17T14:42:30.758Z,22.30
2023-03-17T14:44:36.390Z,22.00
2023-03-17T14:46:38.623Z,21.80
2023-03-17T14:48:42.020Z,21.80
2023-03-17T14:50:49.344Z,21.70
2023-03-17T14:52:51.233Z,21.60
2023-03-17T14:54:53.610Z,21.30
2023-03-17T14:57:02.215Z,21.50
2023-03-17T14:59:15.938Z,21.40
2023-03-17T15:01:33.666Z,21.40
2023-03-17T15:03:38.366Z,21.30
2023-03-17T15:05:41.640Z,21.40
2023-03-17T15:07:43.378Z,21.30
2023-03-17T15:09:45.268Z,21.10
2023-03-17T15:11:47.565Z,21.10
2023-03-17T15:13:50.548Z,21.30
2023-03-17T15:15:52.325Z,21.30
2023-03-17T15:17:57.553Z,21.20
2023-03-17T15:20:04.854Z,21.00
2023-03-17T15:22:28.242Z,21.00
2023-03-17T15:24:36.371Z,21.10
2023-03-17T15:26:38.069Z,20.90
2023-03-17T15:28:41.984Z,20.70
2023-03-17T15:30:48.328Z,20.60
2023-03-17T15:32:51.751Z,20.50
2023-03-17T15:34:54.713Z,20.50
2023-03-17T15:36:57.608Z,20.30
2023-03-17T15:39:00.837Z,20.20
2023-03-17T15:41:02.697Z,20.10
2023-03-17T15:43:04.356Z,20.00
2023-03-17T15:45:06.622Z,19.90
2023-03-17T15:47:11.879Z,19.90
2023-03-17T15:49:13.563Z,19.70
2023-03-17T15:51:16.277Z,19.50
2023-03-17T15:53:18.722Z,19.30
2023-03-17T15:55:21.915Z,19.20
2023-03-17T15:57:23.630Z,19.00
2023-03-17T15:59:25.376Z,18.90
2023-03-17T16:01:28.061Z,18.80
2023-03-17T16:03:33.920Z,18.70
2023-03-17T16:05:36.076Z,18.70
2023-03-17T16:07:37.721Z,18.60
2023-03-17T16:09:39.567Z,18.50
2023-03-17T16:11:41.230Z,18.40
2023-03-17T16:13:42.957Z,18.40
2023-03-17T16:15:48.857Z,18.20
2023-03-17T16:17:51.810Z,18.10
2023-03-17T16:19:53.416Z,18.00
2023-03-17T16:21:55.512Z,18.00
2023-03-17T16:23:57.804Z,18.00
2023-03-17T16:26:13.777Z,17.90
2023-03-17T16:28:18.211Z,17.80
2023-03-17T16:30:21.383Z,17.70
2023-03-17T16:32:23.052Z,17.60
2023-03-17T16:34:25.306Z,17.50
2023-03-17T16:36:27.194Z,17.40
2023-03-17T16:38:32.703Z,17.30
2023-03-17T16:40:35.416Z,17.10
2023-03-17T16:42:37.288Z,17.00
2023-03-17T16:44:39.100Z,16.90
2023-03-17T16:46:44.798Z,16.80
2023-03-17T16:48:48.294Z,16.70
2023-03-17T16:50:53.311Z,16.60
2023-03-17T16:52:55.210Z,16.50
2023-03-17T16:54:56.816Z,16.40
2023-03-17T16:56:58.666Z,16.30
2023-03-17T16:59:00.874Z,16.20
2023-03-17T17:01:04.045Z,16.10
2023-03-17T17:03:05.705Z,16.10
2023-03-17T17:05:18.054Z,16.00
2023-03-17T17:07:19.682Z,15.90
2023-03-17T17:09:21.387Z,15.80
2023-03-17T17:11:23.013Z,15.70
2023-03-17T17:13:24.600Z,15.60
2023-03-17T17:15:26.386Z,15.50
2023-03-17T17:17:28.410Z,15.50
2023-03-17T17:19:30.227Z,15.40
2023-03-17T17:21:32.788Z,15.30
2023-03-17T17:23:34.464Z,15.20
2023-03-17T17:25:36.149Z,15.10
2023-03-17T17:27:39.354Z,15.00
2023-03-17T17:29:40.973Z,15.00
2023-03-17T17:31:42.664Z,14.90
2023-03-17T17:33:44.277Z,14.80
2023-03-17T17:35:47.082Z,14.70
2023-03-17T17:37:48.738Z,14.70
2023-03-17T17:39:52.420Z,14.60
2023-03-17T17:41:54.095Z,14.50
2023-03-17T17:43:56.119Z,14.50
2023-03-17T17:45:57.800Z,14.50
2023-03-17T17:47:59.389Z,14.40
2023-03-17T17:50:01.159Z,14.40
2023-03-17T17:52:02.782Z,14.30
2023-03-17T17:54:04.448Z,14.20
2023-03-17T17:56:06.510Z,14.20
2023-03-17T17:58:09.180Z,14.10
2023-03-17T18:00:15.454Z,14.10
2023-03-17T18:02:17.132Z,14.10
2023-03-17T18:04:19.121Z,14.00
2023-03-17T18:06:21.087Z,14.00
2023-03-17T18:08:23.691Z,14.00
2023-03-17T18:10:26.136Z,13.90
2023-03-17T18:12:28.285Z,13.80
2023-03-17T18:14:29.986Z,13.80
2023-03-17T18:16:31.707Z,13.80
2023-03-17T18:18:33.416Z,13.90
2023-03-17T18:20:35.276Z,13.80
2023-03-17T18:22:36.885Z,13.80
2023-03-17T18:24:39.356Z,13.60
2023-03-17T18:26:41.646Z,13.60
2023-03-17T18:28:43.841Z,13.60
2023-03-17T18:30:45.655Z,13.50
2023-03-17T18:32:49.730Z,13.50
2023-03-17T18:34:51.600Z,13.40
2023-03-17T18:36:54.669Z,13.40
2023-03-17T18:38:56.659Z,13.30
2023-03-17T18:40:58.609Z,13.30
2023-03-17T18:43:00.382Z,13.20
2023-03-17T18:45:02.236Z,13.20
2023-03-17T18:47:04.052Z,13.20
2023-03-17T18:49:07.001Z,13.10
2023-03-17T18:51:08.742Z,13.20
2023-03-17T18:53:10.469Z,13.20
2023-03-17T18:55:13.557Z,13.10
2023-03-17T18:57:15.448Z,13.10
2023-03-17T18:59:17.275Z,13.00
2023-03-17T19:01:18.934Z,13.00
2023-03-17T19:03:20.751Z,12.90
2023-03-17T19:05:22.789Z,12.90
2023-03-17T19:07:24.706Z,12.90
2023-03-17T19:09:27.187Z,12.80
2023-03-17T19:11:29.757Z,12.80
2023-03-17T19:13:31.417Z,12.70
2023-03-17T19:15:34.094Z,12.70
2023-03-17T19:17:35.714Z,12.60
2023-03-17T19:19:37.484Z,12.50
2023-03-17T19:21:39.210Z,12.50
2023-03-17T19:23:41.497Z,12.40
2023-03-17T19:25:43.267Z,12.40
2023-03-17T19:27:45.272Z,12.50
2023-03-17T19:29:46.909Z,12.40
2023-03-17T19:31:48.899Z,12.40
2023-03-17T19:33:51.690Z,12.40
2023-03-17T19:35:54.986Z,12.30
2023-03-17T19:37:57.357Z,12.30
2023-03-17T19:40:00.438Z,12.30
2023-03-17T19:42:02.301Z,12.20
2023-03-17T19:44:06.878Z,12.20
2023-03-17T19:46:09.452Z,12.20
2023-03-17T19:48:11.687Z,12.20
2023-03-17T19:50:13.661Z,12.20
2023-03-17T19:52:15.396Z,12.20
2023-03-17T19:54:18.618Z,12.20
2023-03-17T19:56:21.262Z,12.20
2023-03-17T20:01:57.627Z,12.00
2023-03-17T20:14:01.249Z,11.90
2023-03-17T20:16:03.863Z,11.80
2023-03-17T20:18:05.570Z,11.80
2023-03-17T20:20:09.210Z,11.80
2023-03-17T20:22:11.588Z,11.70
2023-03-17T20:24:14.655Z,11.70
2023-03-17T20:26:16.454Z,11.70
2023-03-17T20:28:18.515Z,11.60
2023-03-17T20:30:20.218Z,11.60
2023-03-17T20:32:21.976Z,11.60
2023-03-17T20:34:23.987Z,11.60
2023-03-17T20:36:26.018Z,11.60
2023-03-17T20:38:27.897Z,11.50
2023-03-17T20:40:29.822Z,11.50
2023-03-17T20:42:32.021Z,11.50
2023-03-17T20:44:33.770Z,11.50
2023-03-17T20:46:35.619Z,11.50
2023-03-17T20:48:37.447Z,11.50
2023-03-17T20:50:41.504Z,11.40
2023-03-17T20:52:43.310Z,11.50
2023-03-17T20:54:45.664Z,11.50
2023-03-17T20:56:48.920Z,11.50
2023-03-17T20:58:50.880Z,11.50
2023-03-17T21:00:53.515Z,11.50
2023-03-17T21:02:56.212Z,11.50
2023-03-17T21:04:57.958Z,11.40
2023-03-17T21:06:59.699Z,11.30
2023-03-17T21:09:02.528Z,11.30
2023-03-17T21:11:08.330Z,11.30
2023-03-17T21:13:10.161Z,11.30
2023-03-17T21:15:13.046Z,11.40
2023-03-17T21:17:16.266Z,11.40
2023-03-17T21:19:18.006Z,11.40
2023-03-17T21:21:20.532Z,11.40
2023-03-17T21:23:23.094Z,11.40
2023-03-17T21:25:25.534Z,11.40
2023-03-17T21:27:27.666Z,11.30
2023-03-17T21:29:32.121Z,11.30
2023-03-17T21:31:33.869Z,11.30
2023-03-17T21:33:35.610Z,11.30
2023-03-17T21:35:37.324Z,11.30
2023-03-17T21:37:39.048Z,11.30
2023-03-17T21:39:40.729Z,11.20
2023-03-17T21:41:43.567Z,11.20
2023-03-17T21:43:46.542Z,11.20
2023-03-17T21:45:49.634Z,11.20
2023-03-17T21:47:51.504Z,11.20
2023-03-17T21:49:53.199Z,11.10
2023-03-17T21:51:55.271Z,11.10
2023-03-17T21:53:57.735Z,11.10
2023-03-17T21:55:59.422Z,11.00
2023-03-17T21:58:02.406Z,11.00
2023-03-17T22:00:06.231Z,11.00
2023-03-17T22:02:10.756Z,10.90
2023-03-17T22:04:12.689Z,10.80
2023-03-17T22:06:15.463Z,10.80
2023-03-17T22:08:17.166Z,10.80
2023-03-17T22:10:18.982Z,10.70
2023-03-17T22:12:21.042Z,10.70
2023-03-17T22:14:22.771Z,10.70
2023-03-17T22:16:25.099Z,10.60
2023-03-17T22:18:27.270Z,10.60
2023-03-17T22:20:30.216Z,10.50
2023-03-17T22:22:32.024Z,10.60
2023-03-17T22:24:33.977Z,10.60
2023-03-17T22:26:35.858Z,10.50
2023-03-17T22:28:38.265Z,10.50
2023-03-17T22:30:40.081Z,10.50
2023-03-17T22:32:42.037Z,10.50
2023-03-17T22:34:44.584Z,10.50
2023-03-17T22:36:46.360Z,10.40
2023-03-17T22:38:48.235Z,10.50
2023-03-17T22:40:59.513Z,10.40
2023-03-17T22:43:01.716Z,10.40
2023-03-17T22:45:04.472Z,10.40
2023-03-17T22:47:06.295Z,10.40
2023-03-17T22:49:08.011Z,10.30
2023-03-17T22:51:11.280Z,10.40
2023-03-17T22:53:12.952Z,10.30
2023-03-17T22:55:14.714Z,10.30
2023-03-17T22:57:16.350Z,10.30
2023-03-17T22:59:17.980Z,10.30
2023-03-17T23:01:20.300Z,10.30
2023-03-17T23:03:22.966Z,10.30
2023-03-17T23:05:25.677Z,10.30
2023-03-17T23:07:27.436Z,10.20
2023-03-17T23:09:29.371Z,10.20
2023-03-17T23:11:31.017Z,10.10
2023-03-17T23:13:32.762Z,10.10
2023-03-17T23:15:34.689Z,10.10
2023-03-17T23:17:36.567Z,10.00
2023-03-17T23:19:38.116Z,10.00
2023-03-17T23:21:39.808Z,9.90
2023-03-17T23:23:41.526Z,9.90
2023-03-17T23:25:43.630Z,9.90
2023-03-17T23:27:46.733Z,9.80
2023-03-17T23:29:48.374Z,9.80
2023-03-17T23:31:50.138Z,9.80
2023-03-17T23:33:52.651Z,9.80
2023-03-17T23:35:54.415Z,9.70
2023-03-17T23:37:56.270Z,9.70
2023-03-17T23:39:57.922Z,9.60
2023-03-17T23:41:59.632Z,9.60
2023-03-17T23:44:01.381Z,9.60
2023-03-17T23:46:04.405Z,9.60
2023-03-17T23:48:06.165Z,9.60
2023-03-17T23:50:08.521Z,9.60
2023-03-17T23:52:11.296Z,9.60
2023-03-17T23:54:14.327Z,9.50
2023-03-17T23:56:16.198Z,9.50
2023-03-17T23:58:18.141Z,9.50
